Terminal Aerodrome Forecast
Issued by NWS Hastings, NE

Home | Current Version | Previous Version | Text Only | Print | Product List | Glossary On
Versions: 1 2 3 4 5 6 7 8 9 10 11 12 13 14 15 16
000
FTUS45 KGID 261721
TAFEAR
TAF
KEAR 261721Z 2618/2718 34018G25KT P6SM OVC010
     FM262100 01015G22KT 2SM -SN BR OVC010
     FM262300 01015KT 3/4SM -SN OVC005
     FM270200 01013KT 5SM -SN BKN015
     FM270700 33011KT P6SM BKN030
     FM271500 30008KT P6SM SCT070
      AMD LTD TO CLD VIS AND WIND=

USA.gov is the U.S. government's official web portal to all federal, state and local government web resources and services.